sensor_id;sensor_type;location;lat;lon;timestamp;P1;durP1;ratioP1;P2;durP2;ratioP2
6999;SDS011;3540;53.242;10.408;2022-11-30T00:00:19;91.97;;;39.87;;
6999;SDS011;3540;53.242;10.408;2022-11-30T00:02:46;86.57;;;40.00;;
6999;SDS011;3540;53.242;10.408;2022-11-30T00:05:18;92.97;;;40.13;;
6999;SDS011;3540;53.242;10.408;2022-11-30T00:07:44;88.07;;;38.03;;
6999;SDS011;3540;53.242;10.408;2022-11-30T00:10:11;84.70;;;37.37;;
6999;SDS011;3540;53.242;10.408;2022-11-30T00:12:37;87.43;;;39.83;;
6999;SDS011;3540;53.242;10.408;2022-11-30T00:15:06;81.63;;;38.73;;
6999;SDS011;3540;53.242;10.408;2022-11-30T00:17:38;89.50;;;39.13;;
6999;SDS011;3540;53.242;10.408;2022-11-30T00:20:04;89.40;;;39.53;;
6999;SDS011;3540;53.242;10.408;2022-11-30T00:22:31;88.27;;;38.23;;
6999;SDS011;3540;53.242;10.408;2022-11-30T00:24:57;92.87;;;39.30;;
6999;SDS011;3540;53.242;10.408;2022-11-30T00:27:24;91.87;;;39.27;;
6999;SDS011;3540;53.242;10.408;2022-11-30T00:29:54;91.40;;;41.47;;
6999;SDS011;3540;53.242;10.408;2022-11-30T00:32:20;92.30;;;39.47;;
6999;SDS011;3540;53.242;10.408;2022-11-30T00:34:46;94.33;;;41.30;;
6999;SDS011;3540;53.242;10.408;2022-11-30T00:37:11;94.97;;;41.07;;
6999;SDS011;3540;53.242;10.408;2022-11-30T00:39:38;98.47;;;40.70;;
6999;SDS011;3540;53.242;10.408;2022-11-30T00:42:03;93.20;;;40.33;;
6999;SDS011;3540;53.242;10.408;2022-11-30T00:44:29;98.67;;;42.53;;
6999;SDS011;3540;53.242;10.408;2022-11-30T00:46:55;87.90;;;39.67;;
6999;SDS011;3540;53.242;10.408;2022-11-30T00:49:20;94.67;;;41.43;;
6999;SDS011;3540;53.242;10.408;2022-11-30T00:51:46;103.53;;;42.47;;
6999;SDS011;3540;53.242;10.408;2022-11-30T00:54:12;98.60;;;39.90;;
6999;SDS011;3540;53.242;10.408;2022-11-30T00:56:37;103.17;;;41.97;;
6999;SDS011;3540;53.242;10.408;2022-11-30T00:59:03;95.63;;;40.83;;
6999;SDS011;3540;53.242;10.408;2022-11-30T01:01:29;103.73;;;42.77;;
6999;SDS011;3540;53.242;10.408;2022-11-30T01:03:55;99.57;;;41.70;;
6999;SDS011;3540;53.242;10.408;2022-11-30T01:06:21;106.10;;;42.17;;
6999;SDS011;3540;53.242;10.408;2022-11-30T01:08:47;102.40;;;42.40;;
6999;SDS011;3540;53.242;10.408;2022-11-30T01:13:44;103.13;;;42.30;;
6999;SDS011;3540;53.242;10.408;2022-11-30T01:16:11;105.93;;;42.80;;
6999;SDS011;3540;53.242;10.408;2022-11-30T01:18:43;100.10;;;40.73;;
6999;SDS011;3540;53.242;10.408;2022-11-30T01:21:11;98.03;;;42.97;;
6999;SDS011;3540;53.242;10.408;2022-11-30T01:23:38;109.67;;;42.63;;
6999;SDS011;3540;53.242;10.408;2022-11-30T01:26:04;101.67;;;42.07;;
6999;SDS011;3540;53.242;10.408;2022-11-30T01:28:30;104.27;;;42.57;;
6999;SDS011;3540;53.242;10.408;2022-11-30T01:30:57;108.60;;;41.37;;
6999;SDS011;3540;53.242;10.408;2022-11-30T01:33:24;98.40;;;41.60;;
6999;SDS011;3540;53.242;10.408;2022-11-30T01:36:00;95.23;;;40.40;;
6999;SDS011;3540;53.242;10.408;2022-11-30T01:38:35;96.87;;;41.70;;
6999;SDS011;3540;53.242;10.408;2022-11-30T01:41:06;93.83;;;41.20;;
6999;SDS011;3540;53.242;10.408;2022-11-30T01:43:47;102.13;;;42.53;;
6999;SDS011;3540;53.242;10.408;2022-11-30T01:51:38;101.53;;;41.33;;
6999;SDS011;3540;53.242;10.408;2022-11-30T01:54:14;100.40;;;40.60;;
6999;SDS011;3540;53.242;10.408;2022-11-30T01:56:51;98.63;;;40.20;;
6999;SDS011;3540;53.242;10.408;2022-11-30T01:59:20;98.63;;;40.70;;
6999;SDS011;3540;53.242;10.408;2022-11-30T02:01:48;98.37;;;41.50;;
6999;SDS011;3540;53.242;10.408;2022-11-30T02:04:18;97.87;;;42.37;;
6999;SDS011;3540;53.242;10.408;2022-11-30T02:06:52;94.70;;;40.07;;
6999;SDS011;3540;53.242;10.408;2022-11-30T02:09:19;93.03;;;41.57;;
6999;SDS011;3540;53.242;10.408;2022-11-30T02:11:46;104.57;;;42.33;;
6999;SDS011;3540;53.242;10.408;2022-11-30T02:17:09;104.90;;;41.23;;
6999;SDS011;3540;53.242;10.408;2022-11-30T02:30:56;102.83;;;41.60;;
6999;SDS011;3540;53.242;10.408;2022-11-30T02:33:26;107.60;;;42.80;;
6999;SDS011;3540;53.242;10.408;2022-11-30T02:35:55;98.47;;;41.03;;
6999;SDS011;3540;53.242;10.408;2022-11-30T02:38:22;96.00;;;40.13;;
6999;SDS011;3540;53.242;10.408;2022-11-30T02:40:50;109.07;;;41.07;;
6999;SDS011;3540;53.242;10.408;2022-11-30T02:43:16;109.27;;;42.37;;
6999;SDS011;3540;53.242;10.408;2022-11-30T02:46:05;106.47;;;41.53;;
6999;SDS011;3540;53.242;10.408;2022-11-30T02:49:21;110.67;;;43.23;;
6999;SDS011;3540;53.242;10.408;2022-11-30T02:51:52;108.73;;;42.23;;
6999;SDS011;3540;53.242;10.408;2022-11-30T02:54:19;110.03;;;42.90;;
6999;SDS011;3540;53.242;10.408;2022-11-30T02:56:45;110.47;;;42.67;;
6999;SDS011;3540;53.242;10.408;2022-11-30T02:59:11;108.03;;;43.83;;
6999;SDS011;3540;53.242;10.408;2022-11-30T03:01:37;107.97;;;41.87;;
6999;SDS011;3540;53.242;10.408;2022-11-30T03:04:03;107.13;;;43.03;;
6999;SDS011;3540;53.242;10.408;2022-11-30T03:06:29;114.00;;;42.57;;
6999;SDS011;3540;53.242;10.408;2022-11-30T03:08:55;115.90;;;43.17;;
6999;SDS011;3540;53.242;10.408;2022-11-30T03:11:20;124.63;;;45.13;;
6999;SDS011;3540;53.242;10.408;2022-11-30T03:13:46;117.10;;;44.73;;
6999;SDS011;3540;53.242;10.408;2022-11-30T03:16:12;121.23;;;43.77;;
6999;SDS011;3540;53.242;10.408;2022-11-30T03:18:38;108.93;;;41.27;;
6999;SDS011;3540;53.242;10.408;2022-11-30T03:21:05;104.30;;;42.07;;
6999;SDS011;3540;53.242;10.408;2022-11-30T03:23:32;116.10;;;45.13;;
6999;SDS011;3540;53.242;10.408;2022-11-30T03:25:59;120.23;;;44.37;;
6999;SDS011;3540;53.242;10.408;2022-11-30T03:28:25;121.13;;;44.73;;
6999;SDS011;3540;53.242;10.408;2022-11-30T03:30:51;122.67;;;45.07;;
6999;SDS011;3540;53.242;10.408;2022-11-30T03:33:17;122.53;;;45.60;;
6999;SDS011;3540;53.242;10.408;2022-11-30T03:35:43;120.70;;;43.47;;
6999;SDS011;3540;53.242;10.408;2022-11-30T03:38:08;117.17;;;44.73;;
6999;SDS011;3540;53.242;10.408;2022-11-30T03:40:37;125.37;;;45.67;;
6999;SDS011;3540;53.242;10.408;2022-11-30T03:43:03;126.77;;;44.37;;
6999;SDS011;3540;53.242;10.408;2022-11-30T03:45:29;123.20;;;45.13;;
6999;SDS011;3540;53.242;10.408;2022-11-30T03:47:54;117.43;;;43.87;;
6999;SDS011;3540;53.242;10.408;2022-11-30T03:50:20;124.03;;;45.17;;
6999;SDS011;3540;53.242;10.408;2022-11-30T03:52:46;124.63;;;45.17;;
6999;SDS011;3540;53.242;10.408;2022-11-30T03:55:12;124.23;;;44.33;;
6999;SDS011;3540;53.242;10.408;2022-11-30T03:57:38;126.00;;;45.63;;
6999;SDS011;3540;53.242;10.408;2022-11-30T04:00:04;121.23;;;44.50;;
6999;SDS011;3540;53.242;10.408;2022-11-30T04:02:31;120.03;;;44.00;;
6999;SDS011;3540;53.242;10.408;2022-11-30T04:04:57;118.63;;;44.43;;
6999;SDS011;3540;53.242;10.408;2022-11-30T04:07:22;121.77;;;44.97;;
6999;SDS011;3540;53.242;10.408;2022-11-30T04:09:48;123.90;;;45.37;;
6999;SDS011;3540;53.242;10.408;2022-11-30T04:12:14;123.10;;;44.30;;
6999;SDS011;3540;53.242;10.408;2022-11-30T04:14:40;122.30;;;44.50;;
6999;SDS011;3540;53.242;10.408;2022-11-30T04:17:05;120.30;;;45.07;;
6999;SDS011;3540;53.242;10.408;2022-11-30T04:19:31;114.97;;;43.27;;
6999;SDS011;3540;53.242;10.408;2022-11-30T04:21:57;121.30;;;45.10;;
6999;SDS011;3540;53.242;10.408;2022-11-30T04:24:22;123.17;;;45.17;;
6999;SDS011;3540;53.242;10.408;2022-11-30T04:26:48;117.13;;;41.77;;
6999;SDS011;3540;53.242;10.408;2022-11-30T04:29:14;118.97;;;43.77;;
6999;SDS011;3540;53.242;10.408;2022-11-30T04:31:40;128.40;;;43.87;;
6999;SDS011;3540;53.242;10.408;2022-11-30T04:34:05;122.60;;;44.30;;
6999;SDS011;3540;53.242;10.408;2022-11-30T04:36:31;122.37;;;45.33;;
6999;SDS011;3540;53.242;10.408;2022-11-30T04:38:56;122.57;;;44.37;;
6999;SDS011;3540;53.242;10.408;2022-11-30T04:41:22;124.47;;;45.60;;
6999;SDS011;3540;53.242;10.408;2022-11-30T04:43:48;119.00;;;42.53;;
6999;SDS011;3540;53.242;10.408;2022-11-30T04:46:13;111.60;;;43.07;;
6999;SDS011;3540;53.242;10.408;2022-11-30T04:48:39;122.30;;;44.63;;
6999;SDS011;3540;53.242;10.408;2022-11-30T04:51:08;111.93;;;43.43;;
6999;SDS011;3540;53.242;10.408;2022-11-30T04:53:34;116.60;;;43.80;;
6999;SDS011;3540;53.242;10.408;2022-11-30T04:56:05;118.77;;;43.73;;
6999;SDS011;3540;53.242;10.408;2022-11-30T04:58:31;119.03;;;43.57;;
6999;SDS011;3540;53.242;10.408;2022-11-30T05:00:56;123.97;;;45.33;;
6999;SDS011;3540;53.242;10.408;2022-11-30T05:03:22;121.73;;;44.33;;
6999;SDS011;3540;53.242;10.408;2022-11-30T05:05:48;121.83;;;45.30;;
6999;SDS011;3540;53.242;10.408;2022-11-30T05:08:13;118.40;;;43.97;;
6999;SDS011;3540;53.242;10.408;2022-11-30T05:10:39;122.10;;;44.47;;
6999;SDS011;3540;53.242;10.408;2022-11-30T05:13:06;121.67;;;44.57;;
6999;SDS011;3540;53.242;10.408;2022-11-30T05:15:31;120.37;;;45.00;;
6999;SDS011;3540;53.242;10.408;2022-11-30T05:17:58;114.53;;;44.37;;
6999;SDS011;3540;53.242;10.408;2022-11-30T05:20:25;118.70;;;45.57;;
6999;SDS011;3540;53.242;10.408;2022-11-30T05:22:52;118.30;;;45.10;;
6999;SDS011;3540;53.242;10.408;2022-11-30T05:25:18;123.33;;;44.10;;
6999;SDS011;3540;53.242;10.408;2022-11-30T05:27:43;117.30;;;44.80;;
6999;SDS011;3540;53.242;10.408;2022-11-30T05:30:09;116.87;;;44.00;;
6999;SDS011;3540;53.242;10.408;2022-11-30T05:32:36;124.43;;;47.17;;
6999;SDS011;3540;53.242;10.408;2022-11-30T05:35:01;111.33;;;44.53;;
6999;SDS011;3540;53.242;10.408;2022-11-30T05:37:27;117.07;;;44.27;;
6999;SDS011;3540;53.242;10.408;2022-11-30T05:39:53;109.30;;;43.73;;
6999;SDS011;3540;53.242;10.408;2022-11-30T05:42:19;110.53;;;43.47;;
6999;SDS011;3540;53.242;10.408;2022-11-30T05:44:45;107.80;;;40.47;;
6999;SDS011;3540;53.242;10.408;2022-11-30T05:47:11;105.07;;;41.20;;
6999;SDS011;3540;53.242;10.408;2022-11-30T05:49:38;106.80;;;41.20;;
6999;SDS011;3540;53.242;10.408;2022-11-30T05:52:03;120.37;;;43.80;;
6999;SDS011;3540;53.242;10.408;2022-11-30T05:54:29;105.40;;;42.30;;
6999;SDS011;3540;53.242;10.408;2022-11-30T05:56:55;105.60;;;41.07;;
6999;SDS011;3540;53.242;10.408;2022-11-30T05:59:21;109.67;;;41.37;;
6999;SDS011;3540;53.242;10.408;2022-11-30T06:01:47;105.13;;;41.50;;
6999;SDS011;3540;53.242;10.408;2022-11-30T06:04:12;109.93;;;41.93;;
6999;SDS011;3540;53.242;10.408;2022-11-30T06:06:38;105.80;;;42.60;;
6999;SDS011;3540;53.242;10.408;2022-11-30T06:09:04;111.67;;;41.40;;
6999;SDS011;3540;53.242;10.408;2022-11-30T06:11:29;106.87;;;42.47;;
6999;SDS011;3540;53.242;10.408;2022-11-30T06:13:55;104.97;;;40.27;;
6999;SDS011;3540;53.242;10.408;2022-11-30T06:16:21;108.73;;;42.67;;
6999;SDS011;3540;53.242;10.408;2022-11-30T06:18:46;106.60;;;41.93;;
6999;SDS011;3540;53.242;10.408;2022-11-30T06:21:12;101.40;;;40.60;;
6999;SDS011;3540;53.242;10.408;2022-11-30T06:23:38;111.00;;;41.10;;
6999;SDS011;3540;53.242;10.408;2022-11-30T06:26:04;106.07;;;41.30;;
6999;SDS011;3540;53.242;10.408;2022-11-30T06:28:32;102.40;;;39.90;;
6999;SDS011;3540;53.242;10.408;2022-11-30T06:30:59;99.67;;;40.33;;
6999;SDS011;3540;53.242;10.408;2022-11-30T06:33:25;97.30;;;40.60;;
6999;SDS011;3540;53.242;10.408;2022-11-30T06:35:51;98.07;;;41.13;;
6999;SDS011;3540;53.242;10.408;2022-11-30T06:38:17;97.07;;;40.07;;
6999;SDS011;3540;53.242;10.408;2022-11-30T06:40:43;94.53;;;39.97;;
6999;SDS011;3540;53.242;10.408;2022-11-30T06:43:09;94.03;;;37.60;;
6999;SDS011;3540;53.242;10.408;2022-11-30T06:45:34;93.13;;;37.43;;
6999;SDS011;3540;53.242;10.408;2022-11-30T06:48:00;98.60;;;39.00;;
6999;SDS011;3540;53.242;10.408;2022-11-30T06:50:26;96.27;;;39.83;;
6999;SDS011;3540;53.242;10.408;2022-11-30T06:52:52;100.87;;;39.47;;
6999;SDS011;3540;53.242;10.408;2022-11-30T06:55:17;91.37;;;38.57;;
6999;SDS011;3540;53.242;10.408;2022-11-30T06:57:43;101.33;;;38.43;;
6999;SDS011;3540;53.242;10.408;2022-11-30T07:00:09;97.57;;;40.73;;
6999;SDS011;3540;53.242;10.408;2022-11-30T07:02:36;100.40;;;40.47;;
6999;SDS011;3540;53.242;10.408;2022-11-30T07:05:02;110.50;;;42.33;;
6999;SDS011;3540;53.242;10.408;2022-11-30T07:07:28;95.37;;;38.73;;
6999;SDS011;3540;53.242;10.408;2022-11-30T07:09:55;105.93;;;40.20;;
6999;SDS011;3540;53.242;10.408;2022-11-30T07:12:21;105.60;;;40.93;;
6999;SDS011;3540;53.242;10.408;2022-11-30T07:14:47;111.60;;;41.57;;
6999;SDS011;3540;53.242;10.408;2022-11-30T07:17:16;111.77;;;42.73;;
6999;SDS011;3540;53.242;10.408;2022-11-30T07:19:42;113.80;;;40.40;;
6999;SDS011;3540;53.242;10.408;2022-11-30T07:22:08;111.20;;;40.53;;
6999;SDS011;3540;53.242;10.408;2022-11-30T07:24:34;106.00;;;40.47;;
6999;SDS011;3540;53.242;10.408;2022-11-30T07:27:18;108.73;;;41.03;;
6999;SDS011;3540;53.242;10.408;2022-11-30T07:29:43;108.80;;;41.73;;
6999;SDS011;3540;53.242;10.408;2022-11-30T07:32:12;105.23;;;40.57;;
6999;SDS011;3540;53.242;10.408;2022-11-30T07:34:38;102.23;;;39.70;;
6999;SDS011;3540;53.242;10.408;2022-11-30T07:37:04;104.77;;;39.90;;
6999;SDS011;3540;53.242;10.408;2022-11-30T07:39:29;109.43;;;41.37;;
6999;SDS011;3540;53.242;10.408;2022-11-30T07:41:55;106.07;;;41.33;;
6999;SDS011;3540;53.242;10.408;2022-11-30T07:44:22;110.10;;;41.90;;
6999;SDS011;3540;53.242;10.408;2022-11-30T07:46:47;103.70;;;39.77;;
6999;SDS011;3540;53.242;10.408;2022-11-30T07:49:13;111.73;;;41.57;;
6999;SDS011;3540;53.242;10.408;2022-11-30T07:51:39;105.67;;;41.23;;
6999;SDS011;3540;53.242;10.408;2022-11-30T07:54:04;105.73;;;41.03;;
6999;SDS011;3540;53.242;10.408;2022-11-30T07:56:30;109.47;;;41.73;;
6999;SDS011;3540;53.242;10.408;2022-11-30T07:58:57;106.07;;;41.53;;
6999;SDS011;3540;53.242;10.408;2022-11-30T08:01:26;108.57;;;40.60;;
6999;SDS011;3540;53.242;10.408;2022-11-30T08:03:53;105.20;;;41.90;;
6999;SDS011;3540;53.242;10.408;2022-11-30T08:06:24;113.07;;;42.50;;
6999;SDS011;3540;53.242;10.408;2022-11-30T08:08:52;115.00;;;44.20;;
6999;SDS011;3540;53.242;10.408;2022-11-30T08:11:24;103.90;;;41.17;;
6999;SDS011;3540;53.242;10.408;2022-11-30T08:13:51;113.67;;;41.20;;
6999;SDS011;3540;53.242;10.408;2022-11-30T08:16:18;109.57;;;40.97;;
6999;SDS011;3540;53.242;10.408;2022-11-30T08:18:46;113.60;;;42.37;;
6999;SDS011;3540;53.242;10.408;2022-11-30T08:21:13;110.03;;;41.67;;
6999;SDS011;3540;53.242;10.408;2022-11-30T08:23:40;111.23;;;41.63;;
6999;SDS011;3540;53.242;10.408;2022-11-30T08:26:12;119.13;;;41.53;;
6999;SDS011;3540;53.242;10.408;2022-11-30T08:28:43;105.63;;;41.17;;
6999;SDS011;3540;53.242;10.408;2022-11-30T08:31:11;116.20;;;42.17;;
6999;SDS011;3540;53.242;10.408;2022-11-30T08:33:39;104.80;;;42.53;;
6999;SDS011;3540;53.242;10.408;2022-11-30T08:36:23;109.10;;;42.13;;
6999;SDS011;3540;53.242;10.408;2022-11-30T08:38:50;103.70;;;40.97;;
6999;SDS011;3540;53.242;10.408;2022-11-30T08:41:17;106.50;;;41.33;;
6999;SDS011;3540;53.242;10.408;2022-11-30T08:43:45;116.53;;;42.43;;
6999;SDS011;3540;53.242;10.408;2022-11-30T08:46:12;112.33;;;43.30;;
6999;SDS011;3540;53.242;10.408;2022-11-30T08:48:39;110.70;;;43.53;;
6999;SDS011;3540;53.242;10.408;2022-11-30T08:51:06;108.23;;;43.27;;
6999;SDS011;3540;53.242;10.408;2022-11-30T08:53:34;116.33;;;43.23;;
6999;SDS011;3540;53.242;10.408;2022-11-30T08:56:01;116.73;;;43.73;;
6999;SDS011;3540;53.242;10.408;2022-11-30T08:58:30;108.37;;;41.50;;
6999;SDS011;3540;53.242;10.408;2022-11-30T09:01:04;110.10;;;43.70;;
6999;SDS011;3540;53.242;10.408;2022-11-30T09:03:40;105.07;;;41.30;;
6999;SDS011;3540;53.242;10.408;2022-11-30T09:06:17;111.03;;;42.80;;
6999;SDS011;3540;53.242;10.408;2022-11-30T09:08:45;110.97;;;41.13;;
6999;SDS011;3540;53.242;10.408;2022-11-30T09:11:14;113.77;;;43.07;;
6999;SDS011;3540;53.242;10.408;2022-11-30T09:13:48;114.03;;;44.17;;
6999;SDS011;3540;53.242;10.408;2022-11-30T09:16:17;116.40;;;43.03;;
6999;SDS011;3540;53.242;10.408;2022-11-30T09:18:45;116.93;;;42.90;;
6999;SDS011;3540;53.242;10.408;2022-11-30T09:21:12;118.37;;;43.37;;
6999;SDS011;3540;53.242;10.408;2022-11-30T09:23:39;120.70;;;45.27;;
6999;SDS011;3540;53.242;10.408;2022-11-30T09:26:06;122.53;;;43.47;;
6999;SDS011;3540;53.242;10.408;2022-11-30T09:28:35;104.10;;;43.90;;
6999;SDS011;3540;53.242;10.408;2022-11-30T09:31:02;108.77;;;43.13;;
6999;SDS011;3540;53.242;10.408;2022-11-30T09:33:29;116.33;;;43.73;;
6999;SDS011;3540;53.242;10.408;2022-11-30T09:35:56;117.13;;;43.57;;
6999;SDS011;3540;53.242;10.408;2022-11-30T09:38:26;110.40;;;43.67;;
6999;SDS011;3540;53.242;10.408;2022-11-30T09:40:57;112.83;;;44.07;;
6999;SDS011;3540;53.242;10.408;2022-11-30T09:46:09;122.97;;;44.63;;
6999;SDS011;3540;53.242;10.408;2022-11-30T09:51:27;129.27;;;48.17;;
6999;SDS011;3540;53.242;10.408;2022-11-30T09:53:58;120.30;;;44.53;;
6999;SDS011;3540;53.242;10.408;2022-11-30T09:56:32;134.47;;;47.77;;
6999;SDS011;3540;53.242;10.408;2022-11-30T09:59:14;125.37;;;46.90;;
6999;SDS011;3540;53.242;10.408;2022-11-30T10:01:45;127.73;;;45.40;;
6999;SDS011;3540;53.242;10.408;2022-11-30T10:04:18;116.50;;;44.73;;
6999;SDS011;3540;53.242;10.408;2022-11-30T10:12:13;111.90;;;44.73;;
6999;SDS011;3540;53.242;10.408;2022-11-30T10:25:57;125.00;;;45.47;;
6999;SDS011;3540;53.242;10.408;2022-11-30T10:31:18;120.73;;;45.27;;
6999;SDS011;3540;53.242;10.408;2022-11-30T10:33:49;109.77;;;44.67;;
6999;SDS011;3540;53.242;10.408;2022-11-30T10:39:11;124.20;;;47.20;;
6999;SDS011;3540;53.242;10.408;2022-11-30T10:41:55;113.93;;;45.07;;
6999;SDS011;3540;53.242;10.408;2022-11-30T10:44:33;121.17;;;46.50;;
6999;SDS011;3540;53.242;10.408;2022-11-30T10:49:35;123.37;;;47.20;;
6999;SDS011;3540;53.242;10.408;2022-11-30T10:52:07;120.87;;;46.47;;
6999;SDS011;3540;53.242;10.408;2022-11-30T10:54:34;124.43;;;48.53;;
6999;SDS011;3540;53.242;10.408;2022-11-30T10:57:01;116.70;;;46.33;;
6999;SDS011;3540;53.242;10.408;2022-11-30T11:08:01;126.20;;;48.20;;
6999;SDS011;3540;53.242;10.408;2022-11-30T11:10:29;133.13;;;48.77;;
6999;SDS011;3540;53.242;10.408;2022-11-30T11:13:04;126.17;;;48.07;;
6999;SDS011;3540;53.242;10.408;2022-11-30T11:15:33;133.00;;;49.10;;
6999;SDS011;3540;53.242;10.408;2022-11-30T11:20:46;123.23;;;47.50;;
6999;SDS011;3540;53.242;10.408;2022-11-30T11:23:22;126.27;;;46.83;;
6999;SDS011;3540;53.242;10.408;2022-11-30T11:25:54;128.33;;;47.57;;
6999;SDS011;3540;53.242;10.408;2022-11-30T11:28:22;127.00;;;48.37;;
6999;SDS011;3540;53.242;10.408;2022-11-30T11:30:51;128.70;;;47.83;;
6999;SDS011;3540;53.242;10.408;2022-11-30T11:35:49;128.77;;;47.43;;
6999;SDS011;3540;53.242;10.408;2022-11-30T11:40:54;117.50;;;45.53;;
6999;SDS011;3540;53.242;10.408;2022-11-30T11:43:21;111.53;;;43.33;;
6999;SDS011;3540;53.242;10.408;2022-11-30T11:45:53;112.27;;;44.50;;
6999;SDS011;3540;53.242;10.408;2022-11-30T11:50:57;101.73;;;41.93;;
6999;SDS011;3540;53.242;10.408;2022-11-30T12:04:54;105.83;;;41.83;;
6999;SDS011;3540;53.242;10.408;2022-11-30T12:12:44;106.83;;;42.30;;
6999;SDS011;3540;53.242;10.408;2022-11-30T12:15:10;101.50;;;42.93;;
6999;SDS011;3540;53.242;10.408;2022-11-30T12:25:44;109.60;;;44.57;;
6999;SDS011;3540;53.242;10.408;2022-11-30T12:39:26;123.40;;;47.10;;
6999;SDS011;3540;53.242;10.408;2022-11-30T12:41:58;126.47;;;47.67;;
6999;SDS011;3540;53.242;10.408;2022-11-30T12:44:38;117.47;;;46.50;;
6999;SDS011;3540;53.242;10.408;2022-11-30T12:55:31;122.63;;;47.53;;
6999;SDS011;3540;53.242;10.408;2022-11-30T12:58:11;123.97;;;46.73;;
6999;SDS011;3540;53.242;10.408;2022-11-30T13:01:04;124.90;;;47.77;;
6999;SDS011;3540;53.242;10.408;2022-11-30T13:04:12;119.77;;;45.43;;
6999;SDS011;3540;53.242;10.408;2022-11-30T13:06:54;115.23;;;44.97;;
6999;SDS011;3540;53.242;10.408;2022-11-30T13:09:27;118.63;;;47.60;;
6999;SDS011;3540;53.242;10.408;2022-11-30T13:12:44;130.63;;;48.77;;
6999;SDS011;3540;53.242;10.408;2022-11-30T13:15:00;115.03;;;47.00;;
6999;SDS011;3540;53.242;10.408;2022-11-30T13:17:49;113.57;;;47.23;;
6999;SDS011;3540;53.242;10.408;2022-11-30T13:29:39;120.23;;;47.07;;
6999;SDS011;3540;53.242;10.408;2022-11-30T13:32:11;117.83;;;46.90;;
6999;SDS011;3540;53.242;10.408;2022-11-30T13:34:39;125.00;;;49.00;;
6999;SDS011;3540;53.242;10.408;2022-11-30T13:39:42;125.80;;;47.03;;
6999;SDS011;3540;53.242;10.408;2022-11-30T13:42:14;120.90;;;47.57;;
6999;SDS011;3540;53.242;10.408;2022-11-30T13:44:57;124.77;;;48.57;;
6999;SDS011;3540;53.242;10.408;2022-11-30T13:50:22;124.17;;;48.47;;
6999;SDS011;3540;53.242;10.408;2022-11-30T13:58:19;128.87;;;49.37;;
6999;SDS011;3540;53.242;10.408;2022-11-30T14:01:01;121.07;;;47.10;;
6999;SDS011;3540;53.242;10.408;2022-11-30T14:06:47;123.10;;;47.57;;
6999;SDS011;3540;53.242;10.408;2022-11-30T14:09:52;129.87;;;48.57;;
6999;SDS011;3540;53.242;10.408;2022-11-30T14:14:59;124.93;;;48.43;;
6999;SDS011;3540;53.242;10.408;2022-11-30T14:17:26;126.70;;;49.63;;
6999;SDS011;3540;53.242;10.408;2022-11-30T14:19:58;136.87;;;51.97;;
6999;SDS011;3540;53.242;10.408;2022-11-30T14:22:54;128.17;;;48.07;;
6999;SDS011;3540;53.242;10.408;2022-11-30T14:25:20;137.10;;;50.43;;
6999;SDS011;3540;53.242;10.408;2022-11-30T14:27:46;139.80;;;52.97;;
6999;SDS011;3540;53.242;10.408;2022-11-30T14:30:19;140.27;;;52.63;;
6999;SDS011;3540;53.242;10.408;2022-11-30T14:32:54;125.50;;;50.23;;
6999;SDS011;3540;53.242;10.408;2022-11-30T14:35:26;134.87;;;50.83;;
6999;SDS011;3540;53.242;10.408;2022-11-30T14:37:55;125.43;;;51.00;;
6999;SDS011;3540;53.242;10.408;2022-11-30T14:40:22;134.63;;;52.10;;
6999;SDS011;3540;53.242;10.408;2022-11-30T14:42:54;147.60;;;52.33;;
6999;SDS011;3540;53.242;10.408;2022-11-30T14:45:29;133.77;;;51.10;;
6999;SDS011;3540;53.242;10.408;2022-11-30T14:50:35;136.17;;;51.97;;
6999;SDS011;3540;53.242;10.408;2022-11-30T14:55:42;148.80;;;53.03;;
6999;SDS011;3540;53.242;10.408;2022-11-30T15:01:25;156.67;;;55.13;;
6999;SDS011;3540;53.242;10.408;2022-11-30T15:03:54;148.63;;;55.13;;
6999;SDS011;3540;53.242;10.408;2022-11-30T15:06:25;149.17;;;55.53;;
6999;SDS011;3540;53.242;10.408;2022-11-30T15:08:55;137.83;;;53.00;;
6999;SDS011;3540;53.242;10.408;2022-11-30T15:11:23;157.27;;;54.47;;
6999;SDS011;3540;53.242;10.408;2022-11-30T15:13:51;153.93;;;54.70;;
6999;SDS011;3540;53.242;10.408;2022-11-30T15:16:29;147.13;;;52.93;;
6999;SDS011;3540;53.242;10.408;2022-11-30T15:18:55;142.63;;;53.90;;
6999;SDS011;3540;53.242;10.408;2022-11-30T15:21:23;151.20;;;54.93;;
6999;SDS011;3540;53.242;10.408;2022-11-30T15:23:55;152.53;;;56.33;;
6999;SDS011;3540;53.242;10.408;2022-11-30T15:29:14;147.10;;;53.00;;
6999;SDS011;3540;53.242;10.408;2022-11-30T15:31:47;153.20;;;55.53;;
6999;SDS011;3540;53.242;10.408;2022-11-30T15:34:19;137.53;;;51.70;;
6999;SDS011;3540;53.242;10.408;2022-11-30T15:36:53;140.50;;;52.63;;
6999;SDS011;3540;53.242;10.408;2022-11-30T15:39:21;135.10;;;51.60;;
6999;SDS011;3540;53.242;10.408;2022-11-30T15:41:59;149.17;;;54.57;;
6999;SDS011;3540;53.242;10.408;2022-11-30T15:47:02;146.00;;;54.00;;
6999;SDS011;3540;53.242;10.408;2022-11-30T15:49:30;147.10;;;54.93;;
6999;SDS011;3540;53.242;10.408;2022-11-30T15:51:58;154.57;;;56.17;;
6999;SDS011;3540;53.242;10.408;2022-11-30T15:54:45;139.40;;;54.30;;
6999;SDS011;3540;53.242;10.408;2022-11-30T15:57:11;139.07;;;52.97;;
6999;SDS011;3540;53.242;10.408;2022-11-30T15:59:38;149.13;;;55.20;;
6999;SDS011;3540;53.242;10.408;2022-11-30T16:02:04;149.40;;;56.83;;
6999;SDS011;3540;53.242;10.408;2022-11-30T16:07:32;136.40;;;52.67;;
6999;SDS011;3540;53.242;10.408;2022-11-30T16:12:37;150.67;;;53.60;;
6999;SDS011;3540;53.242;10.408;2022-11-30T16:18:11;143.67;;;56.13;;
6999;SDS011;3540;53.242;10.408;2022-11-30T16:20:49;152.00;;;55.77;;
6999;SDS011;3540;53.242;10.408;2022-11-30T16:23:17;150.83;;;58.23;;
6999;SDS011;3540;53.242;10.408;2022-11-30T16:25:44;145.70;;;57.90;;
6999;SDS011;3540;53.242;10.408;2022-11-30T16:28:11;144.53;;;57.50;;
6999;SDS011;3540;53.242;10.408;2022-11-30T16:30:39;141.23;;;58.00;;
6999;SDS011;3540;53.242;10.408;2022-11-30T16:33:08;139.63;;;56.60;;
6999;SDS011;3540;53.242;10.408;2022-11-30T16:38:24;132.40;;;54.87;;
6999;SDS011;3540;53.242;10.408;2022-11-30T16:40:50;125.23;;;54.80;;
6999;SDS011;3540;53.242;10.408;2022-11-30T16:43:18;133.23;;;55.03;;
6999;SDS011;3540;53.242;10.408;2022-11-30T16:45:44;136.33;;;56.37;;
6999;SDS011;3540;53.242;10.408;2022-11-30T16:48:10;115.30;;;52.20;;
6999;SDS011;3540;53.242;10.408;2022-11-30T16:50:38;117.33;;;53.17;;
6999;SDS011;3540;53.242;10.408;2022-11-30T16:53:04;114.60;;;52.67;;
6999;SDS011;3540;53.242;10.408;2022-11-30T16:55:31;119.17;;;53.87;;
6999;SDS011;3540;53.242;10.408;2022-11-30T16:57:59;118.80;;;52.80;;
6999;SDS011;3540;53.242;10.408;2022-11-30T17:00:26;117.17;;;54.97;;
6999;SDS011;3540;53.242;10.408;2022-11-30T17:02:59;112.70;;;54.60;;
6999;SDS011;3540;53.242;10.408;2022-11-30T17:05:32;111.43;;;54.57;;
6999;SDS011;3540;53.242;10.408;2022-11-30T17:07:59;123.43;;;54.63;;
6999;SDS011;3540;53.242;10.408;2022-11-30T17:10:25;114.43;;;52.43;;
6999;SDS011;3540;53.242;10.408;2022-11-30T17:12:51;106.80;;;51.40;;
6999;SDS011;3540;53.242;10.408;2022-11-30T17:15:18;109.93;;;51.17;;
6999;SDS011;3540;53.242;10.408;2022-11-30T17:17:46;102.37;;;51.10;;
6999;SDS011;3540;53.242;10.408;2022-11-30T17:20:12;104.40;;;51.17;;